Time;durP1;ratioP1;P1;durP2;ratioP2;P2;SDS_P1;SDS_P2;PMS_P1;PMS_P2;Temp;Humidity;BMP_temperature;BMP_pressure;BME280_temperature;BME280_humidity;BME280_pressure;Samples;Min_cycle;Max_cycle;Signal;HPM_P1;HPM_P2
2021/10/13 00:00:23;;;;;;;32.75;15.55;;;8.10;99.90;;;;;;5043070;28;20476;-52
2021/10/13 00:02:48;;;;;;;31.73;15.77;;;8.10;99.90;;;;;;5031061;28;20426;-52
2021/10/13 00:05:14;;;;;;;28.80;15.77;;;8.10;99.90;;;;;;5031880;28;20890;-52
2021/10/13 00:07:40;;;;;;;27.83;15.10;;;8.10;99.90;;;;;;5030560;28;20407;-52
2021/10/13 00:10:06;;;;;;;29.90;16.20;;;8.00;99.90;;;;;;5031730;28;20395;-52
2021/10/13 00:12:33;;;;;;;32.50;16.30;;;8.00;99.90;;;;;;5046648;28;20391;-52
2021/10/13 00:15:00;;;;;;;32.60;16.43;;;8.00;99.90;;;;;;5030958;28;20872;-52
2021/10/13 00:17:27;;;;;;;30.70;15.65;;;8.00;99.90;;;;;;5030492;28;20392;-52
2021/10/13 00:19:52;;;;;;;32.33;16.70;;;8.00;99.90;;;;;;5046317;28;20788;-51
2021/10/13 00:22:18;;;;;;;30.30;14.90;;;7.90;99.90;;;;;;5031322;28;20856;-52
2021/10/13 00:24:44;;;;;;;31.50;16.63;;;7.90;99.90;;;;;;5030513;28;20461;-51
2021/10/13 00:27:09;;;;;;;36.00;17.47;;;7.80;99.90;;;;;;5031616;28;20387;-52
2021/10/13 00:29:36;;;;;;;33.88;17.00;;;7.80;99.90;;;;;;5030584;28;20375;-56
2021/10/13 00:32:04;;;;;;;34.42;15.52;;;7.80;99.90;;;;;;5046514;28;20851;-52
2021/10/13 00:34:31;;;;;;;30.02;16.65;;;7.80;99.90;;;;;;5031195;28;20718;-52
2021/10/13 00:36:56;;;;;;;32.50;15.80;;;7.80;99.90;;;;;;5045357;28;20407;-52
2021/10/13 00:39:22;;;;;;;33.60;16.43;;;7.80;99.90;;;;;;5030863;28;20387;-51
2021/10/13 00:41:49;;;;;;;31.70;16.33;;;7.70;99.90;;;;;;5029988;28;21204;-52
2021/10/13 00:44:15;;;;;;;30.90;16.63;;;7.70;99.90;;;;;;5029588;28;20399;-52
2021/10/13 00:46:41;;;;;;;32.08;16.15;;;7.70;99.90;;;;;;5029874;28;20383;-51
2021/10/13 00:49:06;;;;;;;30.55;14.82;;;7.70;99.90;;;;;;5030591;28;20383;-52
2021/10/13 00:51:33;;;;;;;34.67;15.93;;;7.70;99.90;;;;;;5062738;28;20406;-52
2021/10/13 00:53:59;;;;;;;33.03;16.63;;;7.70;99.90;;;;;;5030454;28;20407;-52
2021/10/13 00:56:26;;;;;;;40.03;16.83;;;7.70;99.90;;;;;;5030583;28;20482;-52
2021/10/13 00:58:52;;;;;;;34.67;16.10;;;7.70;99.90;;;;;;5029470;28;20728;-52
2021/10/13 01:01:32;;;;;;;33.63;15.90;;;7.70;99.90;;;;;;5030426;28;20472;-51
2021/10/13 01:04:09;;;;;;;35.08;15.95;;;7.70;99.90;;;;;;5029750;28;20393;-51
2021/10/13 01:06:55;;;;;;;35.03;16.08;;;7.70;99.90;;;;;;5030151;28;20435;-55
2021/10/13 01:09:25;;;;;;;32.10;15.50;;;7.70;99.90;;;;;;5030003;28;20431;-51
2021/10/13 01:12:00;;;;;;;34.17;16.30;;;7.70;99.90;;;;;;5029825;28;20854;-51
2021/10/13 01:14:50;;;;;;;31.35;16.45;;;7.70;99.90;;;;;;5030372;28;20814;-52
2021/10/13 01:17:34;;;;;;;35.30;16.40;;;7.60;99.90;;;;;;5030268;28;20398;-51
2021/10/13 01:20:11;;;;;;;34.05;16.17;;;7.60;99.90;;;;;;5029180;28;20410;-51
2021/10/13 01:23:03;;;;;;;34.28;16.88;;;7.40;99.90;;;;;;5029867;28;20402;-55
2021/10/13 01:25:55;;;;;;;38.00;16.47;;;7.40;99.90;;;;;;5030161;28;20414;-52
2021/10/13 01:28:24;;;;;;;33.33;16.03;;;7.40;99.90;;;;;;5029785;28;20383;-52
2021/10/13 01:30:58;;;;;;;35.60;17.15;;;7.30;99.90;;;;;;5029185;28;20482;-51
2021/10/13 01:33:30;;;;;;;36.60;16.60;;;7.30;99.90;;;;;;5030140;28;20386;-53
2021/10/13 01:36:01;;;;;;;32.90;16.98;;;7.40;99.90;;;;;;5029365;28;20428;-51
2021/10/13 01:38:31;;;;;;;38.00;16.80;;;7.40;99.90;;;;;;5030092;28;20387;-52
2021/10/13 01:41:00;;;;;;;34.65;16.48;;;7.40;99.90;;;;;;5028899;28;21032;-52
2021/10/13 01:43:28;;;;;;;35.78;16.67;;;7.50;99.90;;;;;;5030231;28;20470;-51
2021/10/13 01:45:55;;;;;;;30.97;15.27;;;7.40;99.90;;;;;;5028702;28;20858;-51
2021/10/13 01:48:23;;;;;;;31.50;14.95;;;7.40;99.90;;;;;;5035925;28;20388;-52
2021/10/13 01:50:50;;;;;;;32.67;15.65;;;7.50;99.90;;;;;;5033735;28;20395;-51
2021/10/13 01:53:19;;;;;;;30.33;15.45;;;7.60;99.90;;;;;;5029743;28;20382;-52
2021/10/13 01:55:47;;;;;;;32.30;14.30;;;7.60;99.90;;;;;;5028931;28;20375;-52
2021/10/13 01:58:16;;;;;;;33.80;15.10;;;7.60;99.90;;;;;;5029670;28;20387;-51
2021/10/13 02:00:46;;;;;;;29.55;14.35;;;7.60;99.90;;;;;;5029069;28;20442;-51
2021/10/13 02:03:14;;;;;;;31.02;15.20;;;7.70;99.90;;;;;;5029680;28;20398;-51
2021/10/13 02:05:41;;;;;;;30.70;14.17;;;7.80;99.90;;;;;;5028855;28;20379;-55
2021/10/13 02:08:07;;;;;;;30.70;14.93;;;7.80;99.90;;;;;;5029260;28;20411;-52
2021/10/13 02:10:35;;;;;;;29.80;14.70;;;7.80;99.90;;;;;;5029921;28;20390;-52
2021/10/13 02:13:01;;;;;;;24.77;13.13;;;8.00;99.90;;;;;;5028671;28;20394;-51
2021/10/13 02:15:28;;;;;;;29.15;12.90;;;8.10;99.90;;;;;;5029448;28;20391;-54
2021/10/13 02:17:57;;;;;;;26.33;13.30;;;8.20;99.90;;;;;;5027552;28;20390;-52
2021/10/13 02:20:24;;;;;;;23.33;12.93;;;8.30;99.90;;;;;;5044707;28;20407;-53
2021/10/13 02:22:55;;;;;;;23.40;12.33;;;8.40;99.90;;;;;;5028799;28;20383;-53
2021/10/13 02:25:21;;;;;;;28.17;13.30;;;8.40;99.90;;;;;;5029503;28;20422;-51
2021/10/13 02:28:14;;;;;;;26.70;13.02;;;8.40;99.90;;;;;;5028505;28;20448;-51
2021/10/13 02:30:39;;;;;;;24.52;12.68;;;8.30;99.90;;;;;;5026300;28;20467;-54
2021/10/13 02:33:05;;;;;;;25.95;12.52;;;8.30;99.90;;;;;;5028950;28;20379;-51
2021/10/13 02:35:32;;;;;;;23.43;11.63;;;8.30;99.90;;;;;;5029337;28;20783;-51
2021/10/13 02:37:57;;;;;;;24.65;12.18;;;8.20;99.90;;;;;;5028478;28;20394;-51
2021/10/13 02:40:23;;;;;;;27.50;12.90;;;8.10;99.90;;;;;;5031407;28;20471;-51
2021/10/13 02:42:52;;;;;;;27.50;12.73;;;8.10;99.90;;;;;;5032436;28;20433;-51
2021/10/13 02:45:18;;;;;;;30.00;13.70;;;8.00;99.90;;;;;;5033160;28;20369;-51
2021/10/13 02:47:52;;;;;;;27.65;12.80;;;8.00;99.90;;;;;;5033629;28;20764;-51
2021/10/13 02:50:34;;;;;;;28.23;12.83;;;8.00;99.90;;;;;;5047450;28;20445;-51
2021/10/13 02:53:10;;;;;;;31.35;14.25;;;8.10;99.90;;;;;;5032171;28;20397;-50
2021/10/13 02:55:50;;;;;;;29.50;14.07;;;8.10;99.90;;;;;;5033244;28;20379;-51
2021/10/13 02:58:36;;;;;;;29.77;13.40;;;8.10;99.90;;;;;;5032884;28;20383;-51
2021/10/13 03:01:03;;;;;;;32.97;13.38;;;8.00;99.90;;;;;;5031947;28;20826;-51
2021/10/13 03:03:34;;;;;;;33.03;13.90;;;8.00;99.90;;;;;;5032670;28;20398;-51
2021/10/13 03:06:03;;;;;;;32.53;13.80;;;8.00;99.90;;;;;;5032037;28;20520;-51
2021/10/13 03:08:32;;;;;;;29.00;12.77;;;8.00;99.90;;;;;;5032700;28;20410;-51
2021/10/13 03:10:58;;;;;;;29.80;13.07;;;8.10;99.90;;;;;;5037640;28;20398;-51
2021/10/13 03:13:28;;;;;;;29.70;12.85;;;8.20;99.90;;;;;;5039703;28;20863;-51
2021/10/13 03:15:54;;;;;;;27.17;12.90;;;8.20;99.90;;;;;;5039288;28;20389;-51
2021/10/13 03:18:22;;;;;;;29.75;12.40;;;8.10;99.90;;;;;;5084761;28;20397;-51
2021/10/13 03:20:49;;;;;;;33.85;14.45;;;8.10;99.90;;;;;;5051728;28;20401;-51
2021/10/13 03:23:17;;;;;;;34.83;13.30;;;8.10;99.90;;;;;;5052597;28;20390;-51
2021/10/13 03:25:43;;;;;;;31.02;13.48;;;8.00;99.90;;;;;;5051576;28;20417;-51
2021/10/13 03:28:08;;;;;;;33.35;13.73;;;8.00;99.90;;;;;;5052245;28;20902;-51
2021/10/13 03:30:34;;;;;;;31.73;13.33;;;8.00;99.90;;;;;;5051811;28;20459;-51
2021/10/13 03:33:00;;;;;;;32.03;12.93;;;8.00;99.90;;;;;;5051098;28;20558;-52
2021/10/13 03:35:28;;;;;;;30.60;13.00;;;8.00;99.90;;;;;;5052032;28;20853;-52
2021/10/13 03:37:55;;;;;;;31.27;13.10;;;8.00;99.90;;;;;;5045149;28;20409;-52
2021/10/13 03:40:21;;;;;;;32.80;13.98;;;7.90;99.90;;;;;;5050179;28;20414;-52
2021/10/13 03:42:46;;;;;;;33.80;13.63;;;7.90;99.90;;;;;;5047328;28;20380;-52
2021/10/13 03:45:14;;;;;;;34.47;14.00;;;7.80;99.90;;;;;;5032149;28;20386;-52
2021/10/13 03:47:40;;;;;;;33.83;13.90;;;7.80;99.90;;;;;;5031372;28;20383;-55
2021/10/13 03:50:06;;;;;;;34.25;13.63;;;7.70;99.90;;;;;;5031322;28;20904;-52
2021/10/13 03:52:32;;;;;;;34.05;13.38;;;7.60;99.90;;;;;;5031954;28;20470;-52
2021/10/13 03:54:57;;;;;;;35.42;14.40;;;7.60;99.90;;;;;;5031135;28;20444;-52
2021/10/13 03:57:23;;;;;;;30.13;13.65;;;7.60;99.90;;;;;;5031744;28;20437;-52
2021/10/13 03:59:49;;;;;;;32.13;14.10;;;7.60;99.90;;;;;;5030895;28;20762;-52
2021/10/13 04:02:14;;;;;;;34.87;13.93;;;7.70;99.90;;;;;;5047968;28;20757;-52
2021/10/13 04:04:40;;;;;;;33.00;13.68;;;7.70;99.90;;;;;;5030978;28;20438;-55
2021/10/13 04:07:05;;;;;;;32.27;13.93;;;7.70;99.90;;;;;;5050464;28;20550;-52
2021/10/13 04:09:31;;;;;;;32.85;12.77;;;7.70;99.90;;;;;;5051347;28;20390;-52
2021/10/13 04:11:57;;;;;;;34.90;14.10;;;7.70;99.90;;;;;;5050442;28;20400;-52
2021/10/13 04:14:22;;;;;;;31.55;13.02;;;7.70;99.90;;;;;;5048993;28;20537;-52
2021/10/13 04:16:48;;;;;;;32.20;13.70;;;7.70;99.90;;;;;;5049279;28;20409;-52
2021/10/13 04:19:13;;;;;;;32.13;13.43;;;7.70;99.90;;;;;;5050969;28;20385;-52
2021/10/13 04:21:39;;;;;;;35.93;14.53;;;7.70;99.90;;;;;;5046505;28;20473;-56
2021/10/13 04:24:06;;;;;;;35.30;14.13;;;7.60;99.90;;;;;;5046816;28;20423;-52
2021/10/13 04:26:31;;;;;;;32.20;13.30;;;7.60;99.90;;;;;;5044919;28;20410;-51
2021/10/13 04:28:57;;;;;;;33.33;12.73;;;7.60;99.90;;;;;;5043736;28;20408;-52
2021/10/13 04:31:23;;;;;;;37.00;14.90;;;6.40;99.90;;;;;;5046030;28;20401;-51
2021/10/13 04:33:48;;;;;;;35.83;13.68;;;7.60;99.90;;;;;;5050295;28;20381;-52
2021/10/13 04:36:14;;;;;;;33.27;14.10;;;7.60;99.90;;;;;;5050650;28;20725;-52
2021/10/13 04:38:40;;;;;;;34.73;14.07;;;7.60;99.90;;;;;;5050515;28;20764;-53
2021/10/13 04:41:05;;;;;;;33.13;13.32;;;7.60;99.90;;;;;;5040536;28;20411;-54
2021/10/13 04:43:31;;;;;;;37.97;14.80;;;7.60;99.90;;;;;;5032556;28;20719;-51
2021/10/13 04:45:56;;;;;;;34.23;14.97;;;7.50;99.90;;;;;;5048264;28;20416;-51
2021/10/13 04:48:22;;;;;;;37.33;15.13;;;7.40;99.90;;;;;;5050071;28;20930;-52
2021/10/13 04:50:48;;;;;;;29.85;13.30;;;7.50;99.90;;;;;;5049330;28;20390;-52
2021/10/13 04:53:13;;;;;;;38.37;13.73;;;7.60;99.90;;;;;;5047906;28;20458;-52
2021/10/13 04:55:39;;;;;;;32.03;12.50;;;7.60;99.90;;;;;;5049175;28;20378;-56
2021/10/13 04:58:05;;;;;;;33.63;13.63;;;7.60;99.90;;;;;;5046166;28;20702;-51
2021/10/13 05:00:31;;;;;;;32.97;13.45;;;7.60;99.90;;;;;;5048832;28;20420;-52
2021/10/13 05:02:56;;;;;;;30.95;13.30;;;7.50;99.90;;;;;;5043183;28;20821;-55
2021/10/13 05:05:22;;;;;;;34.43;13.27;;;7.40;99.90;;;;;;5044337;28;20393;-51
2021/10/13 05:07:49;;;;;;;33.00;13.27;;;7.40;99.90;;;;;;5048038;28;20745;-51
2021/10/13 05:10:15;;;;;;;37.03;13.70;;;7.40;99.90;;;;;;5041666;28;20489;-52
2021/10/13 05:12:40;;;;;;;30.60;13.15;;;7.50;99.90;;;;;;5046681;28;20479;-54
2021/10/13 05:15:06;;;;;;;35.63;13.80;;;7.40;99.90;;;;;;5048745;28;20381;-51
2021/10/13 05:17:32;;;;;;;37.65;15.15;;;7.40;99.90;;;;;;5044292;28;20756;-51
2021/10/13 05:19:58;;;;;;;33.97;14.20;;;7.40;99.90;;;;;;5048530;28;20861;-52
2021/10/13 05:22:23;;;;;;;38.63;14.80;;;7.40;99.90;;;;;;5049563;28;20417;-52
2021/10/13 05:24:49;;;;;;;33.40;13.90;;;7.40;99.90;;;;;;5048568;28;20445;-52
2021/10/13 05:27:15;;;;;;;35.70;14.43;;;7.40;99.90;;;;;;5049427;28;20431;-51
2021/10/13 05:29:41;;;;;;;33.90;14.43;;;7.30;99.90;;;;;;5045353;28;20376;-55
2021/10/13 05:32:07;;;;;;;37.58;15.00;;;7.30;99.90;;;;;;5034719;28;20399;-52
2021/10/13 05:34:32;;;;;;;34.35;15.25;;;7.40;99.90;;;;;;5029244;28;20402;-52
2021/10/13 05:36:58;;;;;;;33.07;15.50;;;7.50;99.90;;;;;;5034097;28;20865;-51
2021/10/13 05:39:24;;;;;;;31.98;14.45;;;7.50;99.90;;;;;;5032043;28;20874;-52
2021/10/13 05:41:49;;;;;;;33.60;13.87;;;7.60;99.90;;;;;;5030794;28;20409;-53
2021/10/13 05:44:15;;;;;;;35.20;13.13;;;7.60;99.90;;;;;;5034012;28;20407;-52
2021/10/13 05:46:40;;;;;;;32.27;14.13;;;7.80;99.90;;;;;;5035008;28;20489;-51
2021/10/13 05:49:06;;;;;;;28.48;14.20;;;7.70;99.90;;;;;;5030048;28;20411;-52
2021/10/13 05:51:32;;;;;;;31.43;13.90;;;7.70;99.90;;;;;;5033623;28;20942;-52
2021/10/13 05:53:57;;;;;;;35.53;13.13;;;7.90;99.90;;;;;;5030858;28;20385;-52
2021/10/13 05:56:23;;;;;;;31.27;12.43;;;7.70;99.90;;;;;;5031700;28;20393;-52
2021/10/13 05:58:52;;;;;;;34.42;14.85;;;7.70;99.90;;;;;;5035795;28;20429;-52
2021/10/13 06:01:19;;;;;;;33.03;14.80;;;7.80;99.90;;;;;;5037674;28;20414;-52
2021/10/13 06:03:45;;;;;;;31.98;13.57;;;7.90;99.90;;;;;;5036359;28;22070;-56
2021/10/13 06:06:11;;;;;;;38.10;13.80;;;8.00;99.90;;;;;;5067442;28;20401;-52
2021/10/13 06:08:36;;;;;;;29.27;13.07;;;8.00;99.90;;;;;;5034739;28;20401;-51
2021/10/13 06:11:02;;;;;;;24.40;12.20;;;8.10;99.90;;;;;;5031971;28;21143;-52
2021/10/13 06:13:28;;;;;;;27.07;13.70;;;8.30;99.90;;;;;;5031777;28;20855;-52
2021/10/13 06:15:54;;;;;;;29.42;13.27;;;8.40;99.90;;;;;;5041290;28;20463;-52
2021/10/13 06:18:19;;;;;;;28.27;12.60;;;8.40;99.90;;;;;;5042835;28;20446;-53
2021/10/13 06:20:45;;;;;;;27.42;13.07;;;8.50;99.90;;;;;;5040887;28;20414;-57
2021/10/13 06:23:11;;;;;;;23.83;11.48;;;8.40;99.90;;;;;;5048698;28;20404;-53
2021/10/13 06:25:37;;;;;;;25.83;11.60;;;8.30;99.90;;;;;;5048195;28;20793;-52
2021/10/13 06:28:03;;;;;;;25.70;12.15;;;8.40;99.90;;;;;;5033517;28;20584;-52
2021/10/13 06:30:31;;;;;;;24.33;11.68;;;8.50;99.90;;;;;;5043009;28;20457;-52
2021/10/13 06:32:57;;;;;;;26.95;12.10;;;8.60;99.90;;;;;;5041735;28;20452;-52
2021/10/13 06:35:22;;;;;;;26.10;11.70;;;8.70;99.90;;;;;;5056961;28;20399;-53
2021/10/13 06:37:49;;;;;;;25.85;11.55;;;8.70;99.90;;;;;;5031352;28;20419;-52
2021/10/13 06:40:15;;;;;;;21.67;10.30;;;9.00;99.90;;;;;;5036407;28;20413;-52
2021/10/13 06:42:41;;;;;;;19.50;10.48;;;9.70;99.90;;;;;;5038605;28;20436;-52
2021/10/13 06:45:09;;;;;;;20.85;10.52;;;10.00;99.90;;;;;;5030350;28;20506;-52
2021/10/13 06:47:35;;;;;;;24.00;11.23;;;10.00;99.90;;;;;;5038600;28;20799;-52
2021/10/13 06:50:00;;;;;;;22.35;11.20;;;9.80;99.90;;;;;;5052686;28;20965;-53
2021/10/13 06:52:26;;;;;;;22.00;11.90;;;9.50;99.90;;;;;;5028101;28;20452;-53
2021/10/13 06:54:52;;;;;;;26.50;11.93;;;9.40;99.90;;;;;;5034520;28;20460;-54
2021/10/13 06:57:18;;;;;;;25.42;12.10;;;9.40;99.90;;;;;;5037111;28;20405;-52
2021/10/13 06:59:44;;;;;;;24.13;11.48;;;9.40;99.90;;;;;;5035537;28;20395;-54
2021/10/13 07:02:09;;;;;;;28.95;13.27;;;8.80;99.90;;;;;;5045227;28;20401;-53
2021/10/13 07:04:35;;;;;;;24.77;12.47;;;9.20;99.90;;;;;;5041347;28;20404;-53
2021/10/13 07:07:01;;;;;;;29.08;12.90;;;9.20;99.90;;;;;;5045939;28;20752;-52
2021/10/13 07:09:26;;;;;;;24.03;12.23;;;9.30;99.90;;;;;;5053079;28;20890;-52
2021/10/13 07:11:52;;;;;;;24.30;12.70;;;9.40;99.90;;;;;;5047148;28;20403;-53
2021/10/13 07:14:18;;;;;;;26.07;12.80;;;9.30;99.90;;;;;;5043462;28;20405;-53
2021/10/13 07:16:45;;;;;;;27.13;12.85;;;9.20;99.90;;;;;;5045581;28;20478;-55
2021/10/13 07:19:11;;;;;;;29.70;13.77;;;9.00;99.90;;;;;;5047606;28;20427;-53
2021/10/13 07:21:37;;;;;;;30.85;13.80;;;9.20;99.90;;;;;;5079431;28;20768;-53
2021/10/13 07:24:02;;;;;;;27.87;13.47;;;9.50;99.90;;;;;;5047411;28;20392;-52
2021/10/13 07:26:28;;;;;;;29.55;13.07;;;9.50;99.90;;;;;;5050631;28;20385;-52
2021/10/13 07:28:55;;;;;;;25.73;13.70;;;9.30;99.90;;;;;;5050187;28;20373;-52
2021/10/13 07:31:21;;;;;;;32.50;14.00;;;9.10;99.90;;;;;;5042519;28;20399;-53
2021/10/13 07:33:46;;;;;;;27.90;14.90;;;9.20;99.90;;;;;;5051248;28;20404;-56
2021/10/13 07:36:12;;;;;;;30.77;15.45;;;9.30;99.90;;;;;;5051178;28;20413;-52
2021/10/13 07:38:39;;;;;;;37.08;15.50;;;9.30;99.90;;;;;;5050103;28;20392;-53
2021/10/13 07:41:05;;;;;;;31.20;14.97;;;9.30;99.90;;;;;;5051124;28;20462;-54
2021/10/13 07:43:33;;;;;;;36.70;16.60;;;9.30;99.90;;;;;;5051962;28;20390;-54
2021/10/13 07:45:58;;;;;;;32.28;15.20;;;9.30;99.90;;;;;;5050994;28;20381;-52
2021/10/13 07:48:25;;;;;;;37.70;16.15;;;9.20;99.90;;;;;;5052111;28;20427;-54
2021/10/13 07:50:52;;;;;;;37.78;17.15;;;9.20;99.90;;;;;;5051059;28;20389;-54
2021/10/13 07:53:18;;;;;;;39.75;17.35;;;9.30;99.90;;;;;;5051541;28;20405;-55
2021/10/13 07:55:44;;;;;;;36.72;17.75;;;9.40;99.90;;;;;;5051541;28;20875;-55
2021/10/13 07:58:09;;;;;;;40.63;18.27;;;9.60;99.90;;;;;;5050974;28;20405;-54
2021/10/13 08:00:35;;;;;;;40.38;19.00;;;9.80;99.90;;;;;;5050913;28;20413;-52
2021/10/13 08:03:01;;;;;;;40.13;17.57;;;10.20;99.90;;;;;;5050646;28;21064;-53
2021/10/13 08:05:26;;;;;;;43.50;18.67;;;10.50;99.90;;;;;;5050992;28;20829;-52
2021/10/13 08:07:52;;;;;;;44.33;19.10;;;10.70;99.90;;;;;;5049255;28;20923;-53
2021/10/13 08:10:18;;;;;;;40.00;18.48;;;10.80;99.90;;;;;;5051046;28;20393;-52
2021/10/13 08:12:44;;;;;;;42.67;18.67;;;10.70;99.90;;;;;;5051197;28;20737;-52
2021/10/13 08:15:10;;;;;;;42.47;18.95;;;10.30;99.90;;;;;;5049755;28;20377;-52
2021/10/13 08:17:36;;;;;;;38.97;18.38;;;10.40;99.90;;;;;;5051253;28;20500;-52
2021/10/13 08:20:03;;;;;;;44.47;20.05;;;10.50;99.90;;;;;;5049823;28;20915;-52
2021/10/13 08:22:30;;;;;;;42.00;18.60;;;10.50;99.90;;;;;;5049526;28;20389;-52
2021/10/13 08:24:55;;;;;;;40.90;17.77;;;10.70;99.90;;;;;;5049852;28;20443;-52
2021/10/13 08:27:21;;;;;;;38.05;17.52;;;10.60;99.90;;;;;;5051007;28;20780;-52
2021/10/13 08:29:47;;;;;;;34.07;16.20;;;10.50;99.90;;;;;;5050477;28;20377;-56
2021/10/13 08:32:12;;;;;;;36.83;17.47;;;9.80;99.90;;;;;;5049131;28;20469;-54
2021/10/13 08:34:38;;;;;;;38.95;17.58;;;10.80;99.90;;;;;;5050996;28;20413;-52
2021/10/13 08:37:06;;;;;;;40.10;17.00;;;10.70;99.90;;;;;;5049001;28;20868;-52
2021/10/13 08:39:33;;;;;;;36.05;16.75;;;10.70;99.90;;;;;;5050709;28;20400;-52
2021/10/13 08:41:58;;;;;;;38.97;16.90;;;10.40;99.90;;;;;;5049887;28;20882;-52
2021/10/13 08:44:25;;;;;;;37.55;17.10;;;10.40;99.90;;;;;;5050408;28;20386;-53
2021/10/13 08:46:51;;;;;;;38.75;17.35;;;10.20;99.90;;;;;;5049884;28;20368;-54
2021/10/13 08:49:17;;;;;;;38.40;17.17;;;10.10;99.90;;;;;;5050522;28;20461;-52
2021/10/13 08:51:43;;;;;;;35.70;16.10;;;10.20;99.90;;;;;;5050048;28;20393;-53
2021/10/13 08:54:13;;;;;;;39.20;17.48;;;10.30;99.90;;;;;;5049809;28;20385;-54
2021/10/13 08:56:41;;;;;;;31.88;14.75;;;10.20;99.90;;;;;;5050444;28;20697;-53
2021/10/13 08:59:06;;;;;;;34.58;16.63;;;10.30;99.90;;;;;;5049886;28;20385;-53
2021/10/13 09:01:32;;;;;;;36.43;16.63;;;10.40;99.90;;;;;;5049512;28;20455;-54
2021/10/13 09:04:00;;;;;;;39.05;18.52;;;10.60;99.90;;;;;;5049673;28;20397;-53
2021/10/13 09:06:28;;;;;;;37.00;17.08;;;10.80;99.90;;;;;;5045350;28;20390;-53
2021/10/13 09:08:53;;;;;;;32.57;15.00;;;10.70;99.90;;;;;;5048905;28;20425;-54
2021/10/13 09:11:49;;;;;;;32.28;15.35;;;10.90;99.90;;;;;;5043975;28;20409;-53
2021/10/13 09:14:17;;;;;;;29.38;15.32;;;10.80;99.90;;;;;;5043982;28;20401;-53
2021/10/13 09:16:48;;;;;;;29.23;15.07;;;10.90;99.90;;;;;;5049045;28;20426;-53
2021/10/13 09:19:14;;;;;;;28.90;15.02;;;10.90;99.90;;;;;;5047225;28;20386;-54
2021/10/13 09:21:47;;;;;;;31.83;15.70;;;10.60;99.90;;;;;;5049240;28;20816;-53
2021/10/13 09:24:13;;;;;;;30.95;15.77;;;10.70;99.90;;;;;;5048821;28;20459;-52
2021/10/13 09:26:38;;;;;;;28.90;15.40;;;10.90;99.90;;;;;;5049667;28;20385;-53
2021/10/13 09:29:07;;;;;;;28.10;14.65;;;11.10;99.90;;;;;;5048723;28;20437;-53
2021/10/13 09:31:32;;;;;;;29.17;15.55;;;11.20;99.90;;;;;;5049482;28;20404;-53
2021/10/13 09:33:59;;;;;;;26.65;14.57;;;11.40;99.90;;;;;;5048675;28;20377;-53
2021/10/13 09:36:42;;;;;;;32.15;16.10;;;11.50;99.90;;;;;;5081612;28;20455;-53
2021/10/13 09:39:08;;;;;;;26.73;14.32;;;11.70;99.90;;;;;;5047374;28;20578;-54
2021/10/13 09:42:00;;;;;;;30.93;15.80;;;11.50;99.90;;;;;;5049339;28;20899;-54
2021/10/13 09:44:27;;;;;;;25.50;14.20;;;11.60;99.90;;;;;;5038295;28;20399;-53
2021/10/13 09:46:58;;;;;;;27.60;14.10;;;11.50;99.90;;;;;;5028817;28;20394;-53
2021/10/13 09:49:27;;;;;;;23.85;13.25;;;11.40;99.90;;;;;;5029235;28;20387;-53
2021/10/13 09:52:03;;;;;;;23.95;12.93;;;11.50;99.90;;;;;;5029096;28;20434;-53
2021/10/13 09:54:29;;;;;;;24.00;12.88;;;12.00;99.90;;;;;;5028994;28;20391;-51
2021/10/13 09:56:55;;;;;;;23.23;11.52;;;12.30;99.90;;;;;;5050703;28;20388;-51
2021/10/13 09:59:22;;;;;;;22.17;11.50;;;12.40;99.90;;;;;;5049201;28;20417;-51
2021/10/13 10:01:57;;;;;;;22.02;12.25;;;12.20;99.90;;;;;;5049088;28;20409;-56
2021/10/13 10:04:26;;;;;;;22.03;12.00;;;12.20;99.90;;;;;;5049407;28;20389;-52
2021/10/13 10:06:59;;;;;;;21.65;12.80;;;12.10;99.90;;;;;;5048385;28;20389;-54
2021/10/13 10:09:26;;;;;;;26.93;13.13;;;12.20;99.90;;;;;;5048508;28;20416;-53
2021/10/13 10:12:04;;;;;;;26.20;13.50;;;12.30;99.90;;;;;;5040439;28;20397;-53
2021/10/13 10:14:33;;;;;;;25.98;13.40;;;12.20;99.90;;;;;;5040987;28;20774;-51
2021/10/13 10:17:02;;;;;;;18.10;10.40;;;12.30;99.90;;;;;;5041762;28;20903;-51
2021/10/13 10:19:30;;;;;;;17.55;11.00;;;12.40;99.90;;;;;;5048600;28;20488;-50
2021/10/13 10:22:16;;;;;;;18.17;11.25;;;12.80;99.90;;;;;;5048052;28;20417;-51
2021/10/13 10:24:52;;;;;;;16.42;10.05;;;13.50;99.90;;;;;;5048655;28;20397;-53
2021/10/13 10:27:23;;;;;;;19.60;10.10;;;13.80;99.90;;;;;;5048851;28;20417;-53
2021/10/13 10:30:07;;;;;;;16.33;9.30;;;13.90;99.90;;;;;;5048542;28;20396;-57
2021/10/13 10:32:34;;;;;;;15.65;9.27;;;14.40;99.90;;;;;;5048572;28;20464;-53
2021/10/13 10:35:06;;;;;;;15.73;9.05;;;14.70;99.90;;;;;;5047747;28;20733;-54
2021/10/13 10:37:52;;;;;;;16.58;8.80;;;14.90;99.90;;;;;;5048824;28;20397;-53
2021/10/13 10:40:26;;;;;;;13.25;8.43;;;14.80;99.90;;;;;;5048744;28;20416;-53
2021/10/13 10:42:52;;;;;;;12.30;6.77;;;15.00;99.90;;;;;;5048145;28;20386;-58
2021/10/13 10:45:28;;;;;;;13.07;6.80;;;14.80;99.90;;;;;;5048647;28;20451;-54
2021/10/13 10:48:03;;;;;;;14.23;7.85;;;14.20;99.90;;;;;;5047965;28;20389;-54
2021/10/13 10:50:28;;;;;;;12.95;7.75;;;14.50;99.90;;;;;;5048539;28;20377;-54
2021/10/13 10:53:27;;;;;;;10.65;6.10;;;15.00;99.90;;;;;;5046662;28;20425;-53
2021/10/13 10:55:53;;;;;;;13.43;6.47;;;14.80;99.90;;;;;;5047675;28;20385;-53
2021/10/13 10:58:31;;;;;;;15.30;6.85;;;14.20;99.90;;;;;;5041939;28;20488;-51
2021/10/13 11:01:10;;;;;;;12.85;7.45;;;14.20;99.90;;;;;;5042964;28;20429;-53
2021/10/13 11:03:38;;;;;;;12.32;5.40;;;15.20;99.90;;;;;;5049955;28;20460;-53
2021/10/13 11:06:28;;;;;;;11.60;6.00;;;16.50;99.90;;;;;;5039356;28;20397;-54
2021/10/13 11:08:55;;;;;;;11.00;6.15;;;16.70;99.90;;;;;;5047850;28;20421;-54
2021/10/13 11:11:23;;;;;;;12.10;6.03;;;16.80;99.90;;;;;;5046476;28;20508;-53
2021/10/13 11:14:07;;;;;;;12.20;6.60;;;16.70;99.90;;;;;;5052068;28;20385;-57
2021/10/13 11:16:34;;;;;;;10.50;6.20;;;16.70;99.90;;;;;;5051350;28;20408;-53
2021/10/13 11:19:16;;;;;;;10.93;6.85;;;16.70;99.90;;;;;;5051323;28;20417;-53
2021/10/13 11:21:43;;;;;;;10.07;4.78;;;16.20;99.90;;;;;;5050893;28;20911;-54
2021/10/13 11:24:09;;;;;;;9.40;4.05;;;16.00;99.90;;;;;;5051320;28;20966;-54
2021/10/13 11:26:35;;;;;;;10.10;4.10;;;15.70;99.90;;;;;;5051308;28;20394;-53
2021/10/13 11:29:01;;;;;;;9.13;3.97;;;15.50;99.90;;;;;;5051534;28;20771;-53
2021/10/13 11:31:27;;;;;;;8.45;3.60;;;15.50;99.90;;;;;;5052888;28;20439;-53
2021/10/13 11:34:07;;;;;;;7.90;3.50;;;15.50;99.90;;;;;;5049905;28;20408;-54
2021/10/13 11:36:45;;;;;;;7.03;2.78;;;15.60;99.90;;;;;;5051990;28;20872;-53
2021/10/13 11:39:18;;;;;;;6.10;1.80;;;15.60;99.90;;;;;;5051563;28;20365;-53
2021/10/13 11:41:44;;;;;;;4.50;1.20;;;15.90;99.90;;;;;;5051838;28;20401;-53
2021/10/13 11:44:10;;;;;;;4.90;1.27;;;15.60;99.90;;;;;;5050575;28;20476;-53
2021/10/13 11:46:35;;;;;;;5.20;1.40;;;15.50;99.90;;;;;;5045957;28;20469;-55
2021/10/13 11:49:04;;;;;;;4.73;1.47;;;15.70;99.90;;;;;;5045978;28;20406;-54
2021/10/13 11:51:30;;;;;;;6.90;1.83;;;15.90;99.90;;;;;;5049838;28;20757;-53
2021/10/13 11:53:56;;;;;;;6.50;2.30;;;16.30;99.90;;;;;;5047142;28;20390;-53
2021/10/13 11:56:22;;;;;;;5.10;1.50;;;16.50;99.90;;;;;;5051573;28;20450;-53
2021/10/13 11:58:48;;;;;;;5.27;1.70;;;16.80;99.90;;;;;;5050506;28;20405;-53
2021/10/13 12:01:15;;;;;;;6.03;1.50;;;16.60;99.90;;;;;;5048956;28;20409;-54
2021/10/13 12:03:40;;;;;;;6.30;2.20;;;16.40;99.90;;;;;;5045289;28;20757;-53
2021/10/13 12:06:08;;;;;;;6.32;2.00;;;15.90;99.90;;;;;;5047163;28;20393;-53
2021/10/13 12:08:38;;;;;;;5.28;1.75;;;15.40;99.90;;;;;;5039365;28;20519;-54
2021/10/13 12:11:13;;;;;;;4.82;1.23;;;14.80;99.90;;;;;;5044660;28;20409;-56
2021/10/13 12:13:41;;;;;;;5.22;1.70;;;13.90;99.90;;;;;;5042415;28;20892;-52
2021/10/13 12:16:11;;;;;;;5.78;1.98;;;13.50;99.90;;;;;;5048252;28;20396;-52
2021/10/13 12:18:45;;;;;;;7.43;2.33;;;13.30;99.90;;;;;;5050262;28;20464;-51
2021/10/13 12:21:17;;;;;;;6.67;2.90;;;13.20;99.90;;;;;;5049225;28;20441;-51
2021/10/13 12:23:50;;;;;;;6.70;3.28;;;13.10;99.90;;;;;;5049281;28;20881;-54
2021/10/13 12:26:23;;;;;;;7.38;3.60;;;12.80;99.90;;;;;;5048724;28;20472;-52
2021/10/13 12:28:51;;;;;;;7.77;4.33;;;12.40;99.90;;;;;;5047768;28;20420;-53
2021/10/13 12:31:25;;;;;;;9.05;4.60;;;12.20;99.90;;;;;;5048844;28;20458;-52
2021/10/13 12:34:00;;;;;;;8.30;4.10;;;12.60;99.90;;;;;;5043892;28;20420;-51
2021/10/13 12:36:33;;;;;;;8.43;4.00;;;12.90;99.90;;;;;;5041423;28;20945;-51
2021/10/13 12:39:04;;;;;;;9.55;4.10;;;13.10;99.90;;;;;;5045700;28;20414;-51
2021/10/13 12:41:34;;;;;;;7.90;3.80;;;13.70;99.90;;;;;;5030389;28;20521;-51